Time;durP1;ratioP1;P1;durP2;ratioP2;P2;SDS_P1;SDS_P2;PMS_P1;PMS_P2;Temp;Humidity;BMP_temperature;BMP_pressure;BME280_temperature;BME280_humidity;BME280_pressure;Samples;Min_cycle;Max_cycle;Signal;HPM_P1;HPM_P2
2024/03/20 05:02:55;;;;;;;2.30;1.93;;;1.10;97.30;;;;;;4957959;28;20492;-86
2024/03/20 05:05:22;;;;;;;3.23;2.57;;;1.10;97.30;;;;;;4944920;29;20566;-87
2024/03/20 05:07:51;;;;;;;2.90;2.70;;;1.10;97.30;;;;;;4948086;28;20525;-86
2024/03/20 05:10:17;;;;;;;1.80;1.70;;;1.10;97.30;;;;;;4946456;28;20438;-86
2024/03/20 05:13:16;;;;;;;1.90;1.80;;;1.10;97.30;;;;;;4959147;28;21114;-86
2024/03/20 05:15:41;;;;;;;1.60;1.53;;;1.10;97.30;;;;;;4958573;28;20189;-86
2024/03/20 05:18:07;;;;;;;3.10;2.90;;;1.10;97.30;;;;;;4948508;29;20434;-87
2024/03/20 05:20:32;;;;;;;1.60;1.50;;;1.10;97.30;;;;;;4955943;28;20231;-85
2024/03/20 05:22:58;;;;;;;2.40;1.93;;;1.10;97.30;;;;;;4959560;28;20435;-86
2024/03/20 05:25:24;;;;;;;2.30;2.10;;;1.10;97.30;;;;;;4951517;28;20171;-86
2024/03/20 05:27:49;;;;;;;4.20;3.17;;;1.20;97.30;;;;;;4975046;28;20279;-87
2024/03/20 05:30:15;;;;;;;1.40;1.30;;;1.20;97.30;;;;;;4940730;29;20226;-86
2024/03/20 05:32:40;;;;;;;1.70;1.60;;;1.30;97.30;;;;;;4949731;28;20759;-86
2024/03/20 05:35:06;;;;;;;9.17;4.50;;;1.30;97.30;;;;;;4959316;28;20202;-86
2024/03/20 05:37:31;;;;;;;1.30;1.20;;;1.30;97.30;;;;;;4954316;28;20198;-86
2024/03/20 05:39:57;;;;;;;2.33;2.17;;;1.40;97.30;;;;;;4946774;29;20257;-86
2024/03/20 05:42:22;;;;;;;2.00;1.90;;;1.40;97.30;;;;;;4939593;29;20207;-86
2024/03/20 05:44:48;;;;;;;1.67;1.60;;;1.40;97.30;;;;;;4948356;28;20179;-88
2024/03/20 05:47:14;;;;;;;1.37;1.27;;;1.40;97.30;;;;;;4959402;28;20217;-85
2024/03/20 05:49:39;;;;;;;1.80;1.70;;;1.50;97.30;;;;;;4959362;28;20206;-87
2024/03/20 05:52:05;;;;;;;1.50;1.40;;;1.50;97.30;;;;;;4959792;28;20217;-85
2024/03/20 05:54:31;;;;;;;1.63;1.53;;;1.60;97.30;;;;;;4976402;28;20186;-86
2024/03/20 05:56:56;;;;;;;1.93;1.80;;;1.70;97.30;;;;;;4951648;28;20953;-86
2024/03/20 05:59:22;;;;;;;1.70;1.60;;;1.80;97.30;;;;;;4951668;28;20246;-86
2024/03/20 06:01:48;;;;;;;1.80;1.70;;;1.90;97.30;;;;;;4959049;28;20240;-87
2024/03/20 06:04:13;;;;;;;2.23;1.83;;;1.90;97.30;;;;;;4946049;29;20683;-86
2024/03/20 06:06:42;;;;;;;1.10;1.00;;;2.00;97.30;;;;;;4939918;28;20227;-86
2024/03/20 06:09:10;;;;;;;1.47;1.33;;;1.90;97.30;;;;;;4952448;28;20190;-86
2024/03/20 06:11:36;;;;;;;1.67;1.57;;;2.00;97.30;;;;;;4958531;28;20481;-86
2024/03/20 06:14:04;;;;;;;3.07;2.30;;;2.10;97.30;;;;;;4947520;29;20463;-87
2024/03/20 06:16:37;;;;;;;3.53;3.33;;;2.20;97.30;;;;;;4947632;29;20427;-87
2024/03/20 06:19:05;;;;;;;1.40;1.30;;;2.30;97.30;;;;;;4958609;28;20516;-86
2024/03/20 06:21:31;;;;;;;2.40;2.20;;;2.40;97.30;;;;;;4943243;29;20453;-86
2024/03/20 06:23:57;;;;;;;2.93;2.50;;;2.60;97.30;;;;;;4942227;28;20430;-86
2024/03/20 06:26:23;;;;;;;2.00;1.90;;;2.70;97.30;;;;;;4950536;28;20205;-86
2024/03/20 06:28:48;;;;;;;3.17;2.47;;;2.80;97.30;;;;;;4974256;28;20183;-86
2024/03/20 06:31:14;;;;;;;2.23;2.10;;;2.90;97.30;;;;;;4952048;28;20210;-86
2024/03/20 06:33:40;;;;;;;1.93;1.83;;;3.00;97.30;;;;;;4950426;28;20256;-87
2024/03/20 06:36:05;;;;;;;3.63;2.10;;;3.10;97.30;;;;;;4951633;28;20245;-86
2024/03/20 06:38:31;;;;;;;2.73;1.83;;;3.20;97.30;;;;;;4960200;28;20438;-88
2024/03/20 06:40:58;;;;;;;3.27;3.07;;;3.30;97.30;;;;;;4968364;28;20241;-88
2024/03/20 06:43:29;;;;;;;2.20;2.00;;;3.40;97.30;;;;;;4965570;28;20167;-90
2024/03/20 06:45:54;;;;;;;11.53;3.07;;;3.60;97.30;;;;;;4960965;28;20419;-86
2024/03/20 06:48:21;;;;;;;3.00;2.80;;;3.80;97.30;;;;;;4952267;28;20429;-86
2024/03/20 06:50:48;;;;;;;14.23;3.27;;;4.10;97.30;;;;;;4955797;28;20229;-86
2024/03/20 06:53:16;;;;;;;15.17;3.60;;;4.30;97.30;;;;;;4943478;28;20429;-87
2024/03/20 06:55:43;;;;;;;1.37;1.27;;;4.50;97.30;;;;;;4948932;28;20913;-87
2024/03/20 06:58:11;;;;;;;2.57;1.83;;;4.80;97.30;;;;;;4943476;28;20426;-86
2024/03/20 07:00:37;;;;;;;1.77;1.67;;;5.00;97.30;;;;;;4957821;28;20465;-87
2024/03/20 07:03:03;;;;;;;2.90;2.70;;;5.30;97.30;;;;;;4947848;29;20433;-87
2024/03/20 07:05:30;;;;;;;1.60;1.50;;;5.60;97.30;;;;;;4945785;29;20427;-86
2024/03/20 07:07:55;;;;;;;10.17;2.70;;;5.80;97.30;;;;;;4946046;28;20415;-86
2024/03/20 07:10:23;;;;;;;2.37;2.10;;;6.00;97.30;;;;;;4943515;28;20488;-86
2024/03/20 07:12:49;;;;;;;2.30;2.10;;;6.20;97.30;;;;;;4949520;28;20194;-87
2024/03/20 07:15:14;;;;;;;3.67;3.47;;;6.50;97.30;;;;;;4949425;28;20426;-87
2024/03/20 07:17:44;;;;;;;1.83;1.50;;;6.70;97.30;;;;;;4950037;28;20675;-86
2024/03/20 07:20:10;;;;;;;5.00;4.70;;;6.90;97.30;;;;;;4957912;28;20213;-86
2024/03/20 07:22:37;;;;;;;1.27;1.17;;;7.10;97.30;;;;;;4949724;28;20450;-86
2024/03/20 07:25:05;;;;;;;6.20;2.93;;;7.20;97.30;;;;;;4949515;28;20428;-86
2024/03/20 07:27:30;;;;;;;3.80;3.40;;;7.40;97.30;;;;;;4957768;28;20426;-86
2024/03/20 07:29:56;;;;;;;1.70;1.60;;;7.60;97.30;;;;;;4950121;28;20433;-87
2024/03/20 07:32:21;;;;;;;6.53;2.80;;;7.80;97.30;;;;;;4956669;28;20253;-87
2024/03/20 07:34:47;;;;;;;5.77;4.60;;;8.00;97.30;;;;;;4956906;28;20273;-88
2024/03/20 07:37:12;;;;;;;3.93;2.67;;;8.10;97.30;;;;;;4945189;29;20270;-87
2024/03/20 07:39:41;;;;;;;2.43;2.23;;;8.30;97.30;;;;;;4946384;29;20649;-87
2024/03/20 07:42:08;;;;;;;2.77;2.60;;;8.40;97.30;;;;;;4942211;28;20201;-86
2024/03/20 07:44:34;;;;;;;6.93;3.03;;;8.60;97.30;;;;;;4957897;28;20465;-86
2024/03/20 07:47:00;;;;;;;11.90;5.10;;;8.70;97.30;;;;;;4957418;28;20415;-88
2024/03/20 07:49:26;;;;;;;5.47;2.70;;;8.80;97.30;;;;;;4952223;29;20183;-86
2024/03/20 07:51:54;;;;;;;6.00;2.63;;;8.90;97.30;;;;;;4947488;28;20442;-87
2024/03/20 07:54:26;;;;;;;3.10;2.90;;;9.00;97.30;;;;;;4942995;29;20437;-87
2024/03/20 07:56:53;;;;;;;5.27;4.40;;;9.10;97.30;;;;;;4942732;28;20425;-87
2024/03/20 07:59:19;;;;;;;8.93;5.20;;;9.20;97.30;;;;;;4943361;28;20465;-87
2024/03/20 08:01:45;;;;;;;9.90;2.77;;;9.30;97.30;;;;;;4941415;28;20462;-87
2024/03/20 08:04:11;;;;;;;3.83;2.37;;;9.30;97.30;;;;;;4941663;29;20502;-87
2024/03/20 08:06:37;;;;;;;5.10;3.37;;;9.50;97.30;;;;;;4937165;29;20411;-87
2024/03/20 08:09:04;;;;;;;3.30;2.83;;;9.60;97.30;;;;;;4937846;28;20501;-88
2024/03/20 08:11:37;;;;;;;7.13;2.23;;;9.80;97.30;;;;;;4944653;28;20246;-89
2024/03/20 08:14:16;;;;;;;8.97;4.30;;;9.90;97.30;;;;;;4944400;28;20457;-87
2024/03/20 08:16:44;;;;;;;3.57;3.00;;;10.20;97.30;;;;;;4934506;29;20478;-88
2024/03/20 08:19:10;;;;;;;4.10;3.90;;;10.40;96.70;;;;;;4953992;28;20937;-85
2024/03/20 08:21:36;;;;;;;4.37;4.07;;;10.50;95.60;;;;;;4944259;29;20470;-86
2024/03/20 08:24:04;;;;;;;3.10;1.93;;;10.60;96.00;;;;;;4944645;28;20427;-88
2024/03/20 08:26:32;;;;;;;4.63;3.90;;;10.80;96.40;;;;;;4940223;28;20179;-90
2024/03/20 08:29:00;;;;;;;5.70;2.40;;;10.90;95.20;;;;;;4940143;28;20604;-87
2024/03/20 08:31:25;;;;;;;3.27;3.07;;;11.10;95.50;;;;;;4939593;28;21023;-89
2024/03/20 08:33:52;;;;;;;6.27;4.13;;;11.20;94.60;;;;;;4941100;28;20458;-90
2024/03/20 08:36:18;;;;;;;8.27;3.70;;;11.30;94.60;;;;;;4938608;29;20262;-88
2024/03/20 08:38:46;;;;;;;6.30;3.23;;;11.40;94.40;;;;;;4939380;29;20422;-89
2024/03/20 08:41:12;;;;;;;10.93;3.80;;;11.50;93.90;;;;;;4937172;28;20640;-88
2024/03/20 08:43:38;;;;;;;7.00;6.63;;;11.70;92.70;;;;;;4940639;29;20497;-87
2024/03/20 08:46:08;;;;;;;4.60;3.70;;;11.80;92.70;;;;;;4939660;28;20242;-88
2024/03/20 08:48:34;;;;;;;12.03;4.10;;;11.90;92.10;;;;;;4933404;29;20435;-89
2024/03/20 08:51:00;;;;;;;9.10;4.17;;;12.10;92.50;;;;;;4940731;28;20446;-90
2024/03/20 08:53:27;;;;;;;10.37;4.50;;;12.20;91.30;;;;;;4943692;28;20418;-90
2024/03/20 08:55:52;;;;;;;2.83;2.63;;;12.20;91.20;;;;;;4941564;28;20179;-89
2024/03/20 08:58:18;;;;;;;5.03;4.00;;;12.30;91.00;;;;;;4942723;29;20429;-90
2024/03/20 09:00:45;;;;;;;3.90;2.40;;;12.30;91.80;;;;;;4937372;29;20211;-86
2024/03/20 09:03:11;;;;;;;3.50;3.30;;;12.30;90.80;;;;;;4940968;28;20179;-87
2024/03/20 09:05:39;;;;;;;4.70;3.27;;;12.30;91.60;;;;;;4937752;29;20483;-87
2024/03/20 09:08:05;;;;;;;10.40;3.03;;;12.40;92.00;;;;;;4951075;28;20178;-86
2024/03/20 09:10:31;;;;;;;2.80;2.37;;;12.50;91.40;;;;;;4950308;29;20509;-87
2024/03/20 09:12:56;;;;;;;14.07;3.43;;;12.50;91.00;;;;;;4950382;28;20458;-87
2024/03/20 09:15:22;;;;;;;5.03;2.13;;;12.50;90.20;;;;;;4943300;28;20195;-87
2024/03/20 09:17:50;;;;;;;4.40;4.00;;;12.50;91.00;;;;;;4937390;28;20187;-84
2024/03/20 09:20:15;;;;;;;8.33;3.30;;;12.50;91.60;;;;;;4943278;29;20277;-86
2024/03/20 09:22:49;;;;;;;3.23;3.10;;;12.50;91.30;;;;;;4940782;29;20899;-87
2024/03/20 09:25:14;;;;;;;6.47;4.23;;;12.60;91.30;;;;;;4940674;28;20429;-86
2024/03/20 09:27:41;;;;;;;4.50;3.53;;;12.80;91.90;;;;;;4949352;29;20418;-86
2024/03/20 09:30:07;;;;;;;4.87;3.20;;;12.90;91.60;;;;;;4963206;28;20282;-87
2024/03/20 09:32:33;;;;;;;10.23;4.33;;;13.00;91.10;;;;;;4938842;29;20501;-87
2024/03/20 09:34:58;;;;;;;6.80;3.97;;;13.10;89.80;;;;;;4965916;28;20431;-87
2024/03/20 09:37:27;;;;;;;2.80;2.60;;;13.10;89.40;;;;;;4941031;29;20346;-89
2024/03/20 09:39:53;;;;;;;5.03;3.20;;;13.20;89.20;;;;;;4948461;28;20214;-87
2024/03/20 09:42:21;;;;;;;5.43;3.47;;;13.40;89.70;;;;;;4944493;28;20446;-87
2024/03/20 09:44:47;;;;;;;8.90;3.77;;;13.50;89.10;;;;;;4943908;29;20470;-87
2024/03/20 09:47:14;;;;;;;4.77;3.40;;;13.60;88.60;;;;;;4947635;29;20562;-89
2024/03/20 09:49:40;;;;;;;2.70;2.50;;;13.70;89.30;;;;;;4939527;29;20442;-88
2024/03/20 09:52:08;;;;;;;2.73;2.13;;;13.80;89.10;;;;;;4947820;28;20443;-87
2024/03/20 09:54:34;;;;;;;2.70;2.50;;;14.00;88.30;;;;;;4953018;28;20426;-88
2024/03/20 09:56:59;;;;;;;5.03;4.73;;;14.10;88.00;;;;;;4958916;28;20952;-87
2024/03/20 09:59:25;;;;;;;10.37;4.37;;;14.20;87.80;;;;;;4954618;29;20258;-88
2024/03/20 10:01:51;;;;;;;5.20;4.90;;;14.40;87.70;;;;;;4939829;28;20238;-87
2024/03/20 10:04:16;;;;;;;6.00;3.73;;;14.60;87.20;;;;;;4948760;29;20206;-85
2024/03/20 10:06:44;;;;;;;7.80;4.90;;;14.80;86.70;;;;;;4955862;28;20924;-87
2024/03/20 10:09:12;;;;;;;6.57;2.70;;;14.80;85.70;;;;;;4948454;28;20212;-89
2024/03/20 10:11:38;;;;;;;3.83;3.17;;;14.80;85.60;;;;;;4948142;29;20511;-88
2024/03/20 10:14:04;;;;;;;16.53;5.10;;;14.80;85.20;;;;;;4939847;28;20419;-88
2024/03/20 10:16:30;;;;;;;18.47;5.47;;;14.80;85.40;;;;;;4938943;29;20447;-87
2024/03/20 10:18:56;;;;;;;6.10;2.87;;;14.90;84.70;;;;;;4955984;28;20175;-91
2024/03/20 10:21:27;;;;;;;7.23;4.27;;;15.00;84.80;;;;;;4954884;28;21015;-87
2024/03/20 10:23:54;;;;;;;13.20;5.73;;;15.10;84.60;;;;;;4943280;28;20172;-88
2024/03/20 10:26:19;;;;;;;17.13;4.73;;;15.10;84.50;;;;;;4964737;28;20473;-87
2024/03/20 10:28:50;;;;;;;4.60;4.23;;;15.30;84.80;;;;;;4951643;29;20961;-87
2024/03/20 10:31:20;;;;;;;5.03;4.17;;;15.50;86.40;;;;;;4950533;28;20216;-86
2024/03/20 10:33:49;;;;;;;10.40;5.67;;;15.70;84.60;;;;;;4944418;28;20429;-87
2024/03/20 10:36:17;;;;;;;7.10;3.90;;;15.90;83.60;;;;;;4955308;28;20430;-86
2024/03/20 10:38:44;;;;;;;6.27;3.63;;;15.90;83.70;;;;;;4946670;28;20462;-87
2024/03/20 10:41:14;;;;;;;3.93;3.63;;;16.10;84.10;;;;;;4958497;28;20481;-88
2024/03/20 10:43:41;;;;;;;10.93;3.87;;;16.20;83.50;;;;;;4952801;29;20418;-87
2024/03/20 10:46:14;;;;;;;8.27;4.73;;;16.30;83.20;;;;;;4949449;28;20506;-87
2024/03/20 10:48:40;;;;;;;5.60;4.20;;;16.30;82.90;;;;;;4953246;29;20422;-87
2024/03/20 10:51:13;;;;;;;3.80;2.70;;;16.40;83.30;;;;;;4973574;28;20478;-91
2024/03/20 10:53:47;;;;;;;7.50;5.23;;;16.60;84.50;;;;;;4990949;28;20206;-87
2024/03/20 10:56:33;;;;;;;11.90;4.87;;;16.60;82.70;;;;;;4959770;28;20928;-87
2024/03/20 10:59:05;;;;;;;4.37;2.77;;;16.80;83.40;;;;;;4946285;28;20427;-87
2024/03/20 11:01:33;;;;;;;9.00;2.50;;;16.90;83.10;;;;;;4950407;28;20505;-87
2024/03/20 11:04:34;;;;;;;5.80;4.40;;;17.00;83.20;;;;;;4949593;28;20426;-87
2024/03/20 11:07:44;;;;;;;6.23;3.93;;;17.10;81.70;;;;;;4958059;28;20430;-86
2024/03/20 11:10:27;;;;;;;3.87;2.87;;;17.20;82.10;;;;;;4947392;28;20473;-87
2024/03/20 11:15:36;;;;;;;2.73;2.53;;;17.30;82.00;;;;;;4968241;28;20470;-83
2024/03/20 11:18:21;;;;;;;;;;;;;;;;;;;;;
2024/03/20 11:20:47;;;;;;;3.73;2.53;;;17.60;81.20;;;;;;4964484;28;20466;-85
2024/03/20 11:23:27;;;;;;;4.43;3.23;;;17.80;82.30;;;;;;4952759;28;21035;-82
2024/03/20 11:25:55;;;;;;;3.23;3.03;;;17.90;81.00;;;;;;4955010;28;20261;-85
2024/03/20 11:28:27;;;;;;;5.17;2.50;;;17.80;80.50;;;;;;4953406;28;20421;-85
2024/03/20 11:30:56;;;;;;;10.57;3.77;;;17.80;80.50;;;;;;4955339;28;20477;-84
2024/03/20 11:33:24;;;;;;;6.73;4.10;;;17.80;79.80;;;;;;4961357;28;20446;-84
2024/03/20 11:35:57;;;;;;;16.37;4.70;;;17.60;80.10;;;;;;4964328;28;20426;-84
2024/03/20 11:38:29;;;;;;;6.80;3.97;;;17.60;80.20;;;;;;4960500;28;20426;-86
2024/03/20 11:41:05;;;;;;;4.90;3.30;;;17.80;80.90;;;;;;4964529;28;20484;-85
2024/03/20 11:43:36;;;;;;;6.50;4.00;;;18.10;80.20;;;;;;4962523;28;20472;-85
2024/03/20 11:46:16;;;;;;;5.33;4.53;;;18.30;80.60;;;;;;4959941;28;20425;-86
2024/03/20 11:48:57;;;;;;;7.10;3.40;;;18.40;80.50;;;;;;4958075;28;20429;-84
2024/03/20 11:51:38;;;;;;;4.60;3.77;;;18.50;79.20;;;;;;4962191;28;20457;-87
2024/03/20 11:54:06;;;;;;;6.70;3.13;;;18.70;79.10;;;;;;4962966;28;21018;-84
2024/03/20 11:56:35;;;;;;;3.67;3.47;;;18.90;79.40;;;;;;4961389;28;20418;-85
2024/03/20 11:59:27;;;;;;;3.47;3.23;;;19.10;78.50;;;;;;4978024;28;20421;-85
2024/03/20 12:02:27;;;;;;;4.47;3.37;;;19.30;77.10;;;;;;4956824;28;20529;-84
2024/03/20 12:04:54;;;;;;;15.30;2.50;;;19.60;77.90;;;;;;4972785;28;20428;-84
2024/03/20 12:07:35;;;;;;;3.97;2.77;;;19.70;78.00;;;;;;4959481;28;20422;-86
2024/03/20 12:10:26;;;;;;;8.70;3.53;;;19.80;76.70;;;;;;4961854;28;20432;-84
2024/03/20 12:12:56;;;;;;;5.33;3.60;;;19.70;75.40;;;;;;4956906;28;20433;-84
2024/03/20 12:15:27;;;;;;;6.10;3.37;;;19.80;76.30;;;;;;4937194;29;20515;-86
2024/03/20 12:18:16;;;;;;;2.47;2.30;;;19.90;76.00;;;;;;4939840;29;20427;-87
2024/03/20 12:20:44;;;;;;;2.83;2.07;;;19.90;75.10;;;;;;4938002;29;20476;-84
2024/03/20 12:23:25;;;;;;;2.80;1.60;;;19.80;74.60;;;;;;4936031;29;20997;-84
2024/03/20 12:25:56;;;;;;;6.13;2.40;;;20.00;75.50;;;;;;4940029;29;20429;-85
2024/03/20 12:28:27;;;;;;;9.73;4.07;;;20.10;74.70;;;;;;4936787;29;20507;-85
2024/03/20 12:30:55;;;;;;;15.00;3.53;;;20.30;75.60;;;;;;4941421;29;20511;-85
2024/03/20 12:33:25;;;;;;;3.03;2.83;;;20.40;74.60;;;;;;4934217;29;21064;-84
2024/03/20 12:36:14;;;;;;;3.60;2.70;;;20.30;73.80;;;;;;4933005;29;20436;-85
2024/03/20 12:38:55;;;;;;;6.53;3.63;;;19.80;72.80;;;;;;4942271;29;20961;-85
2024/03/20 12:41:44;;;;;;;3.90;2.27;;;20.00;73.10;;;;;;4931511;29;20478;-84
2024/03/20 12:44:17;;;;;;;13.10;3.77;;;20.30;73.00;;;;;;4933434;29;20844;-86
2024/03/20 12:46:45;;;;;;;8.53;3.00;;;20.50;73.00;;;;;;4932138;29;20475;-85
2024/03/20 12:49:45;;;;;;;2.67;2.47;;;20.60;72.20;;;;;;4931888;29;20416;-85
2024/03/20 12:52:17;;;;;;;2.17;2.00;;;20.60;70.50;;;;;;4931466;29;20435;-85
2024/03/20 12:54:48;;;;;;;3.70;2.87;;;20.60;69.90;;;;;;4934177;29;20969;-84
2024/03/20 12:57:16;;;;;;;2.60;2.47;;;20.80;72.50;;;;;;4935003;29;20575;-84
2024/03/20 12:59:46;;;;;;;3.33;2.43;;;21.00;71.30;;;;;;4935377;29;21009;-84
2024/03/20 13:02:16;;;;;;;5.30;2.40;;;21.20;71.10;;;;;;4934999;29;20432;-84
2024/03/20 13:04:45;;;;;;;3.33;3.13;;;21.20;71.60;;;;;;4934826;29;20447;-84
2024/03/20 13:07:15;;;;;;;7.93;4.00;;;21.20;72.60;;;;;;4934521;29;20439;-85
2024/03/20 13:09:59;;;;;;;5.37;3.60;;;21.50;71.20;;;;;;4934951;29;20542;-85
2024/03/20 13:12:25;;;;;;;6.03;3.87;;;21.80;71.10;;;;;;4934653;29;20474;-84
2024/03/20 13:14:50;;;;;;;3.93;2.93;;;22.00;70.10;;;;;;4949797;29;20595;-85
2024/03/20 13:17:18;;;;;;;3.30;2.83;;;21.70;70.20;;;;;;4953669;29;20630;-84
2024/03/20 13:19:46;;;;;;;3.03;2.90;;;21.70;70.40;;;;;;4953958;29;20207;-84
2024/03/20 13:22:20;;;;;;;3.40;2.57;;;21.70;68.80;;;;;;4953624;29;20422;-85
2024/03/20 13:24:47;;;;;;;5.07;3.33;;;21.80;70.40;;;;;;4953892;28;20449;-85
2024/03/20 13:27:14;;;;;;;7.43;3.43;;;21.60;71.20;;;;;;4953263;29;20781;-84
2024/03/20 13:29:44;;;;;;;4.50;4.03;;;21.20;70.70;;;;;;4953641;29;20419;-84
2024/03/20 13:32:19;;;;;;;3.83;2.80;;;21.30;70.80;;;;;;4953699;29;20459;-85
2024/03/20 13:34:49;;;;;;;5.23;3.77;;;21.40;70.60;;;;;;4954935;28;20477;-84
2024/03/20 13:37:21;;;;;;;2.50;1.77;;;21.10;70.30;;;;;;4953503;28;20435;-85
2024/03/20 13:39:50;;;;;;;2.57;2.00;;;20.10;70.20;;;;;;4953500;29;20549;-86
2024/03/20 13:42:37;;;;;;;3.23;2.53;;;20.10;71.60;;;;;;4953464;28;20957;-83
2024/03/20 13:45:04;;;;;;;2.87;2.30;;;20.40;71.50;;;;;;4957179;28;20518;-85
2024/03/20 13:47:30;;;;;;;4.40;2.47;;;20.90;71.90;;;;;;4951942;29;20434;-85
2024/03/20 13:49:56;;;;;;;5.27;3.10;;;21.40;69.90;;;;;;4952795;29;20433;-86
2024/03/20 13:52:21;;;;;;;8.30;3.13;;;21.50;70.00;;;;;;4953180;29;20434;-86
2024/03/20 13:54:53;;;;;;;5.87;3.03;;;21.60;69.60;;;;;;4954265;28;20203;-82
2024/03/20 13:57:19;;;;;;;4.70;1.83;;;21.70;68.80;;;;;;4953018;29;20343;-83
2024/03/20 13:59:45;;;;;;;8.03;3.80;;;21.70;68.90;;;;;;4953148;29;21043;-86
2024/03/20 14:02:24;;;;;;;5.50;2.90;;;21.60;69.70;;;;;;4953203;29;20733;-84
2024/03/20 14:04:50;;;;;;;7.77;4.30;;;21.70;68.50;;;;;;4952116;28;20438;-83
2024/03/20 14:07:16;;;;;;;2.87;2.67;;;21.50;69.70;;;;;;4952799;29;20485;-85
2024/03/20 14:09:41;;;;;;;3.10;2.93;;;21.50;70.00;;;;;;4954376;29;20179;-83
2024/03/20 14:12:15;;;;;;;5.20;2.20;;;21.50;69.30;;;;;;4952748;29;20433;-83
2024/03/20 14:14:41;;;;;;;7.80;2.40;;;21.30;70.40;;;;;;4968370;28;20233;-85
2024/03/20 14:17:17;;;;;;;4.87;3.57;;;21.60;68.70;;;;;;4973665;28;20413;-84
2024/03/20 14:19:45;;;;;;;4.77;2.53;;;21.60;68.20;;;;;;4955770;28;20210;-84
2024/03/20 14:22:12;;;;;;;2.33;1.87;;;21.70;68.90;;;;;;4955310;28;20936;-84
2024/03/20 14:24:37;;;;;;;5.67;2.17;;;21.60;68.60;;;;;;4955172;28;20480;-84
2024/03/20 14:27:08;;;;;;;4.33;3.23;;;21.60;69.10;;;;;;4955686;28;20824;-83
2024/03/20 14:29:34;;;;;;;2.50;2.30;;;21.20;68.70;;;;;;4955657;28;20277;-84
2024/03/20 14:32:00;;;;;;;2.07;1.93;;;21.30;70.00;;;;;;4955565;28;20505;-84
2024/03/20 14:34:28;;;;;;;5.03;2.27;;;21.30;68.80;;;;;;4955495;28;20201;-84
2024/03/20 14:36:54;;;;;;;4.93;3.10;;;21.10;69.10;;;;;;4955465;28;20793;-84
2024/03/20 14:39:19;;;;;;;4.83;3.30;;;21.10;69.20;;;;;;4953347;28;20458;-84
2024/03/20 14:41:45;;;;;;;3.20;2.70;;;20.90;69.40;;;;;;4955260;28;20434;-84
2024/03/20 14:44:13;;;;;;;7.00;2.93;;;20.90;70.30;;;;;;4972405;28;20190;-86
2024/03/20 14:46:38;;;;;;;5.90;3.27;;;20.80;70.60;;;;;;4955407;28;20183;-84
2024/03/20 14:49:03;;;;;;;10.23;2.90;;;20.70;70.60;;;;;;4955363;28;20446;-84
2024/03/20 14:51:29;;;;;;;3.07;1.77;;;20.40;71.30;;;;;;4954924;28;20194;-84
2024/03/20 14:53:55;;;;;;;3.30;2.30;;;20.30;71.50;;;;;;4955430;28;20579;-84
2024/03/20 14:56:21;;;;;;;3.23;2.90;;;20.20;71.60;;;;;;4972390;28;20581;-84
2024/03/20 14:58:47;;;;;;;11.10;4.10;;;20.10;71.60;;;;;;4955619;28;20193;-84
2024/03/20 15:01:17;;;;;;;5.23;2.67;;;20.10;72.40;;;;;;4963224;28;20221;-84
2024/03/20 15:03:44;;;;;;;4.00;3.40;;;19.80;72.00;;;;;;4954818;28;20451;-84
2024/03/20 15:06:14;;;;;;;2.53;2.33;;;19.60;72.40;;;;;;4954776;28;20469;-84
2024/03/20 15:08:39;;;;;;;3.27;2.50;;;19.40;72.70;;;;;;4947421;28;20940;-84
2024/03/20 15:11:12;;;;;;;13.30;2.80;;;19.50;73.80;;;;;;4955293;28;20459;-83
2024/03/20 15:13:38;;;;;;;3.90;3.00;;;19.40;73.80;;;;;;4947150;28;20269;-83
2024/03/20 15:16:04;;;;;;;4.93;3.60;;;19.30;73.70;;;;;;4954472;28;20430;-84
2024/03/20 15:18:29;;;;;;;6.57;5.20;;;19.20;74.10;;;;;;4954459;28;20282;-84
2024/03/20 15:20:55;;;;;;;5.10;2.73;;;19.00;74.00;;;;;;4954841;28;20206;-83
2024/03/20 15:23:21;;;;;;;3.80;2.53;;;18.90;74.40;;;;;;4971573;28;20213;-84
2024/03/20 15:25:47;;;;;;;4.97;3.30;;;19.00;75.20;;;;;;4954577;28;20182;-84
2024/03/20 15:28:12;;;;;;;4.70;3.40;;;19.10;74.20;;;;;;4954641;28;20935;-84
2024/03/20 15:30:38;;;;;;;5.97;3.30;;;18.90;74.20;;;;;;4954683;28;20234;-83
2024/03/20 15:33:04;;;;;;;5.30;3.90;;;18.90;74.00;;;;;;4954778;28;20190;-83
2024/03/20 15:35:30;;;;;;;8.17;3.90;;;18.90;73.50;;;;;;4954513;28;20468;-83
2024/03/20 15:37:56;;;;;;;5.97;3.13;;;18.90;73.10;;;;;;4954390;28;20327;-83
2024/03/20 15:40:22;;;;;;;3.07;2.33;;;18.90;73.90;;;;;;4954194;28;21059;-84
2024/03/20 15:42:48;;;;;;;5.83;3.23;;;18.90;73.80;;;;;;4971792;28;20509;-83
2024/03/20 15:45:15;;;;;;;4.40;3.43;;;18.90;74.40;;;;;;4954199;28;20240;-84
2024/03/20 15:47:41;;;;;;;5.20;3.60;;;18.70;75.10;;;;;;4964297;28;20233;-84
2024/03/20 15:50:13;;;;;;;5.07;3.33;;;18.60;76.90;;;;;;4954137;28;20489;-83
2024/03/20 15:52:39;;;;;;;13.97;3.00;;;18.50;76.50;;;;;;4970968;28;20572;-83
2024/03/20 15:55:05;;;;;;;6.93;3.30;;;18.50;77.70;;;;;;4956825;28;20530;-85
2024/03/20 15:57:31;;;;;;;3.53;2.50;;;18.40;78.30;;;;;;4965592;28;20449;-84
2024/03/20 15:59:56;;;;;;;2.70;2.50;;;18.30;78.20;;;;;;4965630;28;20458;-83
2024/03/20 16:02:22;;;;;;;6.10;4.00;;;18.30;78.20;;;;;;4964184;28;20178;-84
2024/03/20 16:04:48;;;;;;;7.30;4.30;;;18.20;78.20;;;;;;4967446;28;20649;-84
2024/03/20 16:07:13;;;;;;;3.77;3.07;;;18.20;78.10;;;;;;4965089;28;20501;-84
2024/03/20 16:09:46;;;;;;;4.10;3.63;;;18.10;79.00;;;;;;4969121;28;20178;-83
2024/03/20 16:12:14;;;;;;;6.50;3.40;;;18.10;78.60;;;;;;4971139;28;20178;-83
2024/03/20 16:14:40;;;;;;;4.53;3.00;;;18.00;78.40;;;;;;4969828;28;20528;-84
2024/03/20 16:17:13;;;;;;;3.40;2.47;;;17.90;78.70;;;;;;4953773;28;20426;-84
2024/03/20 16:19:38;;;;;;;4.13;3.30;;;17.80;79.70;;;;;;4952966;28;20465;-85
2024/03/20 16:22:04;;;;;;;3.03;2.83;;;17.70;79.40;;;;;;4953912;28;20422;-85
2024/03/20 16:24:29;;;;;;;5.73;3.00;;;17.50;80.30;;;;;;4971016;28;20209;-84
2024/03/20 16:26:55;;;;;;;2.30;2.10;;;17.30;79.90;;;;;;4971495;28;20182;-84
2024/03/20 16:29:20;;;;;;;3.57;3.20;;;17.20;80.50;;;;;;4955722;28;20671;-84
2024/03/20 16:31:46;;;;;;;2.90;2.07;;;17.10;80.20;;;;;;4957782;28;20170;-84
2024/03/20 16:34:12;;;;;;;3.77;3.10;;;17.00;80.50;;;;;;4957454;28;20200;-84
2024/03/20 16:36:38;;;;;;;9.43;3.60;;;16.90;80.30;;;;;;4957681;28;20414;-85
2024/03/20 16:39:05;;;;;;;6.20;3.90;;;16.80;80.40;;;;;;4972622;28;20595;-85
2024/03/20 16:41:31;;;;;;;10.60;3.20;;;16.70;81.20;;;;;;4957646;28;20470;-84
2024/03/20 16:43:57;;;;;;;5.93;2.90;;;16.60;81.30;;;;;;4957820;28;20438;-83
2024/03/20 16:46:22;;;;;;;4.13;2.40;;;16.60;81.40;;;;;;4975293;28;20424;-85
2024/03/20 16:48:48;;;;;;;6.63;2.93;;;16.50;81.50;;;;;;4957746;28;20258;-84
2024/03/20 16:51:13;;;;;;;6.77;3.20;;;16.40;81.70;;;;;;4957674;28;20174;-84
2024/03/20 16:53:41;;;;;;;1.70;1.60;;;16.40;81.90;;;;;;4974608;28;20760;-84
2024/03/20 16:56:11;;;;;;;7.40;4.00;;;16.40;82.00;;;;;;4957918;28;20601;-84
2024/03/20 16:58:36;;;;;;;6.20;3.30;;;16.40;82.20;;;;;;4956599;28;20422;-85
2024/03/20 17:01:02;;;;;;;5.87;3.43;;;16.30;83.20;;;;;;4957498;28;20476;-84
2024/03/20 17:03:27;;;;;;;3.53;2.67;;;16.10;84.40;;;;;;4956974;28;20383;-84
2024/03/20 17:05:53;;;;;;;2.13;1.97;;;15.90;84.80;;;;;;4974839;28;20197;-84
2024/03/20 17:08:19;;;;;;;5.13;2.80;;;15.70;86.00;;;;;;4957344;28;20561;-84
2024/03/20 17:10:44;;;;;;;5.17;3.27;;;15.40;86.30;;;;;;4957181;28;20265;-84
2024/03/20 17:13:09;;;;;;;2.50;2.30;;;15.30;86.20;;;;;;4974273;28;20281;-84
2024/03/20 17:15:35;;;;;;;6.50;4.40;;;15.20;86.50;;;;;;4957211;28;20686;-84
2024/03/20 17:18:02;;;;;;;6.97;3.57;;;15.10;86.30;;;;;;4957201;28;20185;-84
2024/03/20 17:20:31;;;;;;;6.50;2.50;;;15.10;86.40;;;;;;4956721;28;20651;-84
2024/03/20 17:22:57;;;;;;;3.23;2.83;;;15.10;86.10;;;;;;4964594;28;20426;-84
2024/03/20 17:25:24;;;;;;;4.97;3.50;;;15.00;86.10;;;;;;4956660;28;20418;-84
2024/03/20 17:27:50;;;;;;;3.57;2.73;;;15.00;86.10;;;;;;4973304;28;20882;-84
2024/03/20 17:30:16;;;;;;;14.00;3.70;;;14.90;85.90;;;;;;4973767;28;20505;-84
2024/03/20 17:32:42;;;;;;;4.33;3.47;;;14.80;86.20;;;;;;4974124;28;20183;-84
2024/03/20 17:35:08;;;;;;;16.00;4.27;;;14.70;86.50;;;;;;4956392;28;20469;-84
2024/03/20 17:37:34;;;;;;;2.80;2.60;;;14.50;86.80;;;;;;4956612;28;20524;-84
2024/03/20 17:40:02;;;;;;;5.30;3.63;;;14.40;87.20;;;;;;4956571;28;20901;-84
2024/03/20 17:42:28;;;;;;;7.63;3.93;;;14.30;87.50;;;;;;4956516;28;20269;-85
2024/03/20 17:44:53;;;;;;;10.20;5.93;;;14.10;87.90;;;;;;4973633;28;20466;-84
2024/03/20 17:47:19;;;;;;;8.50;4.40;;;14.00;88.40;;;;;;4973870;28;20617;-85
2024/03/20 17:49:44;;;;;;;9.27;4.80;;;13.90;88.80;;;;;;4973669;28;20190;-84
2024/03/20 17:52:10;;;;;;;9.53;4.00;;;13.80;88.50;;;;;;4974014;28;20182;-84
2024/03/20 17:54:35;;;;;;;8.03;4.10;;;13.80;88.70;;;;;;4973726;28;20631;-84
2024/03/20 17:57:01;;;;;;;13.23;5.60;;;13.70;88.70;;;;;;4956430;28;20205;-84
2024/03/20 17:59:26;;;;;;;9.93;4.73;;;13.60;88.90;;;;;;4955948;28;20579;-85
2024/03/20 18:01:52;;;;;;;5.80;4.10;;;13.50;89.50;;;;;;4956524;28;20191;-84